x

South Moresby (46147) Wave Buoy

7:00pm - Thu 25th May 2017 All times are PDT. -7 hours from GMT.

  • Sig Wave height 8.2ft
  • Peak Period 9s
  • Wind
    25mph, 31mph gusts
  • Sea Temp 49°f
  • Air Temp 49°f
  • Sea Pressure 1018.3mb
  • South Moresby
  • South Moresby

More Historic Weather Station data

Upgrade to MSW Pro to gain access to the past 30 days of data for over 8000 Wavebouys and Weather Stations around the globe.

Join Pro

Comparision Forecast

View Surf forecast
   
Thu 05/25 7:00pm 8ft 9s 25 31 mph 1018.3mb 49f 49f
6:00pm 8.5ft 8s 25 29 mph 1018.4mb 50f 49f
5:00pm 8.5ft 8s 25 29 mph 1018.4mb 50f 49f
4:00pm 9ft 8s 22 29 mph 1018.5mb 51f 49f
3:00pm 9ft 8s 25 29 mph 1018.7mb 51f 49f
2:00pm 8.5ft 8s 25 29 mph 1018.7mb 51f 49f
1:00pm 9ft 7s 22 27 mph 1019mb 50f 49f
12:00pm 9ft 8s 22 27 mph 1019mb 49f 49f
11:00am 8.5ft 8s 22 29 mph 1019mb 49f 49f
10:00am 9ft 8s 20 25 mph 1019.5mb 49f 49f
9:00am 9ft 8s 22 29 mph 1019.6mb 49f 49f
8:00am 9.5ft 8s 22 29 mph 1019.7mb 49f 49f
7:00am 10ft 8s 27 34 mph 1019.4mb 51f 49f
6:00am 10ft 7s 27 34 mph 1019.6mb 49f 48f
5:00am 10ft 9s 27 34 mph 1019.8mb 49f 48f
4:00am 9.5ft 8s 31 38 mph 1020mb 49f 48f
3:00am 10.5ft 8s 29 36 mph 1020mb 49f 48f
2:00am 10ft 8s 29 36 mph 1020.1mb 49f 48f
12:00am  -   -  27
mph
1021.1mb 49f 48f
Wed 05/24 11:00pm 11.5ft 8s 29 36 mph 1021.4mb 49f 48f
10:00pm 12ft 9s 27 34 mph 1021.6mb 49f 48f
9:00pm 12ft 9s 29 38 mph 1021.5mb 50f 48f
8:00pm 13ft 8s 31 38 mph 1021.9mb 49f 48f
7:00pm 12ft 9s 31 40 mph 1022.2mb 49f 49f
6:00pm 11.5ft 10s 31 38 mph 1022.6mb 49f 49f
4:00pm  -   -  31
mph
1023.1mb 49f 48f
3:00pm 12ft 10s 31 38 mph 1023.3mb 49f 48f
2:00pm 13ft 10s 31 40 mph 1023.8mb 49f 48f
1:00pm 12.5ft 10s 29 36 mph 1024.2mb 49f 48f
12:00pm  -   -  31
mph
- - -
11:00am 13.5ft 8s 31 38 mph 1024.4mb 49f 49f
10:00am 14ft 9s 29 38 mph 1024.6mb 49f 49f
9:00am 14ft 8s 29 38 mph 1024.8mb 49f 48f
8:00am 14ft 9s 31 38 mph 1024.5mb 49f 48f
7:00am 13ft 9s 31 43 mph 1024.1mb 49f 48f
6:00am 13.5ft 10s 34 43 mph 1023.9mb 49f 49f
5:00am 12ft 10s 31 40 mph 1023.9mb 49f 49f
4:00am 12.5ft 9s 31 40 mph 1023.4mb 49f 49f
3:00am 12ft 9s 34 43 mph 1022.8mb 49f 49f
2:00am 12ft 9s 36 45 mph 1021.9mb 49f 49f
1:00am 11ft 10s 31 38 mph 1022.3mb 49f 49f
12:00am 11ft 9s 27 34 mph 1022.2mb 49f 49f
Tue 05/23 11:00pm 11.5ft 10s 31 38 mph 1021.2mb 49f 49f
10:00pm 11.5ft 9s 29 36 mph 1021mb 49f 49f
9:00pm 11ft 10s 29 34 mph 1020.8mb 49f 50f
8:00pm 11ft 9s 27 36 mph 1020.6mb 49f 50f
7:00pm 11.5ft 10s 25 31 mph 1020mb 49f 50f
6:00pm 12ft 10s 25 29 mph 1019.3mb 49f 50f
5:00pm 11ft 8s 27 31 mph 1018.7mb 49f 49f
4:00pm 11ft 8s 27 31 mph 1018.5mb 49f 47f
3:00pm 11ft 8s 27 36 mph 1018mb 50f 48f
2:00pm 10ft 8s 27 34 mph 1017.5mb 50f 48f
1:00pm  -   -  27
mph
- - -
12:00pm 9.5ft 7s 27 34 mph 1016.1mb 50f 48f
11:00am 10ft 7s 27 34 mph 1016.1mb 49f 46f
10:00am 9ft 10s 25 29 mph 1015.6mb 49f 49f
9:00am 9ft 11s 27 31 mph 1015.1mb 50f 48f
8:00am 9ft 11s 27 36 mph 1014.6mb 50f 48f
7:00am 9ft 11s 22 29 mph 1014.6mb 50f 49f
6:00am 8.5ft 10s 22 29 mph 1014.5mb 50f 49f
5:00am 9ft 11s 25 31 mph 1014.6mb 50f 49f
4:00am 9ft 11s 18 22 mph 1015.1mb 50f 50f
3:00am 9.5ft 11s 16 20 mph 1015.4mb 50f 50f
2:00am 8.5ft 11s 18 22 mph 1016.1mb 50f 50f
1:00am 9ft 10s 18 22 mph 1016.5mb 50f 50f
12:00am 8ft 11s 16 20 mph 1016.7mb 50f 50f
Mon 05/22 11:00pm 8ft 11s 18 20 mph 1017.2mb 50f 50f
10:00pm 8ft 11s 16 18 mph 1017.8mb 50f 50f
9:00pm 8.5ft 11s 13 18 mph 1018mb 50f 50f
8:00pm 8ft 11s 16 20 mph 1018.5mb 50f 51f
7:00pm 8.5ft 11s 13 18 mph 1018.5mb 49f 51f
6:00pm 9ft 12s 16 20 mph 1019.8mb 50f 51f
5:00pm 9.5ft 11s 16 20 mph 1020.5mb 50f 51f
4:00pm 9ft 12s 16 20 mph 1020.8mb 50f 51f
3:00pm 9ft 11s 13 18 mph 1021.4mb 50f 51f
2:00pm 9.5ft 11s 13 18 mph 1021.2mb 50f 51f
1:00pm 9ft 11s 16 18 mph 1021.2mb 50f 51f
12:00pm 9ft 11s 16 20 mph 1021.4mb 50f 51f
11:00am 9ft 11s 16 18 mph 1021.3mb 50f 51f
10:00am 9.5ft 11s 18 22 mph 1022mb 49f 51f
9:00am 9.5ft 11s 16 18 mph 1021.6mb 50f 50f
8:00am 9ft 12s 16 20 mph 1022.2mb 50f 50f
7:00am 10ft 11s 13 18 mph 1022.1mb 50f 50f
6:00am 10ft 11s 13 18 mph 1022.4mb 50f 50f
5:00am 9ft 10s 11 16 mph 1022.9mb 50f 51f
4:00am 10ft 11s 11 13 mph 1023.3mb 50f 51f